createdAt,value
2023-02-01T00:01:09.445Z,-0.80
2023-02-01T00:03:37.557Z,-0.80
2023-02-01T00:06:04.806Z,-0.70
2023-02-01T00:08:31.905Z,-0.80
2023-02-01T00:11:00.635Z,-0.70
2023-02-01T00:13:30.045Z,-0.80
2023-02-01T00:16:03.364Z,-0.80
2023-02-01T00:18:34.901Z,-0.80
2023-02-01T00:21:02.106Z,-0.80
2023-02-01T00:23:29.219Z,-0.80
2023-02-01T00:25:59.043Z,-0.70
2023-02-01T00:28:25.892Z,-0.80
2023-02-01T00:31:03.631Z,-0.80
2023-02-01T00:33:31.952Z,-0.90
2023-02-01T00:36:09.330Z,-1.00
2023-02-01T00:38:38.665Z,-1.00
2023-02-01T00:41:27.219Z,-1.00
2023-02-01T00:43:55.392Z,-0.90
2023-02-01T00:46:22.766Z,-0.90
2023-02-01T00:48:50.522Z,-0.90
2023-02-01T00:51:22.552Z,-0.90
2023-02-01T00:53:49.679Z,-0.90
2023-02-01T00:56:16.948Z,-0.80
2023-02-01T00:58:45.928Z,-0.80
2023-02-01T01:01:17.550Z,-0.80
2023-02-01T01:03:47.989Z,-0.80
2023-02-01T01:06:17.028Z,-0.80
2023-02-01T01:08:51.715Z,-0.80
2023-02-01T01:11:23.925Z,-0.90
2023-02-01T01:13:52.863Z,-0.90
2023-02-01T01:16:20.919Z,-0.90
2023-02-01T01:18:48.502Z,-0.90
2023-02-01T01:21:17.086Z,-1.00
2023-02-01T01:23:45.379Z,-1.10
2023-02-01T01:26:17.889Z,-1.10
2023-02-01T01:28:45.185Z,-1.10
2023-02-01T01:31:13.950Z,-1.20
2023-02-01T01:33:43.684Z,-1.20
2023-02-01T01:36:12.255Z,-1.10
2023-02-01T01:38:42.616Z,-1.10
2023-02-01T01:41:13.213Z,-1.10
2023-02-01T01:43:50.720Z,-1.10
2023-02-01T01:46:20.245Z,-1.10
2023-02-01T01:48:59.428Z,-1.00
2023-02-01T01:51:29.445Z,-1.10
2023-02-01T01:54:13.513Z,-1.10
2023-02-01T01:56:41.786Z,-1.20
2023-02-01T01:59:10.248Z,-1.20
2023-02-01T03:19:34.686Z,-1.90
2023-02-01T03:22:09.154Z,-1.90
2023-02-01T03:24:45.471Z,-1.90
2023-02-01T03:27:21.867Z,-2.00
2023-02-01T03:30:07.018Z,-2.00
2023-02-01T03:32:55.558Z,-2.00
2023-02-01T03:35:34.681Z,-2.00
2023-02-01T03:38:33.653Z,-2.10
2023-02-01T03:41:11.137Z,-2.30
2023-02-01T03:43:53.084Z,-2.30
2023-02-01T03:46:28.925Z,-2.20
2023-02-01T03:48:56.606Z,-2.10
2023-02-01T03:51:24.079Z,-2.10
2023-02-01T03:53:52.963Z,-2.00
2023-02-01T03:56:22.652Z,-2.00
2023-02-01T03:58:59.992Z,-2.00
2023-02-01T04:01:28.644Z,-2.10
2023-02-01T04:03:56.004Z,-2.20
2023-02-01T04:06:22.983Z,-2.20
2023-02-01T04:08:49.939Z,-2.20
2023-02-01T04:11:17.424Z,-2.30
2023-02-01T04:13:44.912Z,-2.20
2023-02-01T04:16:12.126Z,-2.20
2023-02-01T04:18:38.995Z,-2.40
2023-02-01T04:21:06.067Z,-2.40
2023-02-01T04:23:32.948Z,-2.50
2023-02-01T04:26:04.565Z,-2.50
2023-02-01T04:28:32.300Z,-2.50
2023-02-01T04:30:59.943Z,-2.40
2023-02-01T04:33:26.915Z,-2.40
2023-02-01T04:35:53.850Z,-2.30
2023-02-01T04:38:20.694Z,-2.30
2023-02-01T04:40:50.611Z,-2.20
2023-02-01T04:43:18.509Z,-2.20
2023-02-01T04:45:50.040Z,-2.20
2023-02-01T04:48:18.190Z,-2.20
2023-02-01T04:50:48.430Z,-2.20
2023-02-01T04:53:16.410Z,-2.20
2023-02-01T04:55:44.430Z,-2.20
2023-02-01T04:58:11.469Z,-2.30
2023-02-01T05:00:38.852Z,-2.30
2023-02-01T05:03:05.725Z,-2.40
2023-02-01T05:05:32.660Z,-2.40
2023-02-01T05:07:59.665Z,-2.40
2023-02-01T05:10:26.521Z,-2.40
2023-02-01T05:13:12.096Z,-2.50
2023-02-01T05:15:39.019Z,-2.50
2023-02-01T05:18:05.875Z,-2.60
2023-02-01T05:20:32.746Z,-2.50
2023-02-01T05:22:59.644Z,-2.50
2023-02-01T05:25:26.505Z,-2.50
2023-02-01T05:27:55.118Z,-2.50
2023-02-01T05:30:22.620Z,-2.40
2023-02-01T05:32:53.339Z,-2.50
2023-02-01T05:35:20.669Z,-2.50
2023-02-01T05:37:47.823Z,-2.40
2023-02-01T05:40:14.684Z,-2.50
2023-02-01T05:42:41.480Z,-2.50
2023-02-01T05:45:09.132Z,-2.50
2023-02-01T05:47:35.927Z,-2.50
2023-02-01T05:50:02.879Z,-2.50
2023-02-01T05:52:29.747Z,-2.50
2023-02-01T05:54:56.616Z,-2.50
2023-02-01T05:57:23.447Z,-2.50
2023-02-01T05:59:50.413Z,-2.60
2023-02-01T06:02:17.532Z,-2.60
2023-02-01T06:04:44.346Z,-2.60
2023-02-01T06:07:11.583Z,-2.60
2023-02-01T06:09:38.623Z,-2.90
2023-02-01T06:12:05.834Z,-2.80
2023-02-01T06:14:32.687Z,-2.80
2023-02-01T06:16:59.595Z,-2.80
2023-02-01T06:19:26.458Z,-2.70
2023-02-01T06:21:53.360Z,-2.70
2023-02-01T06:24:20.642Z,-2.80
2023-02-01T06:26:47.513Z,-2.80
2023-02-01T06:29:16.410Z,-2.80
2023-02-01T06:31:43.850Z,-2.80
2023-02-01T06:34:10.920Z,-3.00
2023-02-01T06:36:37.799Z,-3.00
2023-02-01T06:39:05.105Z,-3.00
2023-02-01T06:41:31.917Z,-2.90
2023-02-01T06:43:58.810Z,-2.90
2023-02-01T06:46:25.754Z,-2.90
2023-02-01T06:48:52.712Z,-2.90
2023-02-01T06:51:22.152Z,-2.90
2023-02-01T06:53:48.991Z,-2.90
2023-02-01T06:56:15.923Z,-2.90
2023-02-01T06:58:42.810Z,-2.90
2023-02-01T07:01:11.227Z,-3.00
2023-02-01T07:03:38.993Z,-3.20
2023-02-01T07:06:06.287Z,-3.20
2023-02-01T07:08:35.304Z,-3.10
2023-02-01T07:11:11.229Z,-3.10
2023-02-01T07:13:38.766Z,-3.00
2023-02-01T07:16:08.250Z,-3.00
2023-02-01T07:18:35.244Z,-2.90
2023-02-01T07:21:02.031Z,-2.90
2023-02-01T07:23:29.198Z,-2.80
2023-02-01T07:26:01.125Z,-2.80
2023-02-01T07:28:30.626Z,-2.80
2023-02-01T07:31:04.213Z,-2.90
2023-02-01T07:33:31.476Z,-2.90
2023-02-01T07:35:58.292Z,-2.80
2023-02-01T07:38:25.292Z,-2.80
2023-02-01T07:40:52.117Z,-2.70
2023-02-01T07:43:18.917Z,-2.70
2023-02-01T07:45:53.042Z,-2.60
2023-02-01T07:48:20.394Z,-2.50
2023-02-01T07:50:47.423Z,-2.40
2023-02-01T07:53:14.304Z,-2.10
2023-02-01T07:55:41.513Z,-1.80
2023-02-01T07:58:08.305Z,-1.30
2023-02-01T08:00:53.583Z,-1.00
2023-02-01T08:03:20.417Z,-0.70
2023-02-01T08:05:47.236Z,-0.30
2023-02-01T08:08:14.122Z,0.00
2023-02-01T08:10:41.005Z,0.40
2023-02-01T08:13:08.273Z,0.60
2023-02-01T08:15:35.162Z,0.90
2023-02-01T08:18:03.328Z,1.20
2023-02-01T08:20:30.248Z,1.40
2023-02-01T08:22:57.246Z,1.70
2023-02-01T08:25:25.001Z,1.90
2023-02-01T08:27:52.198Z,2.20
2023-02-01T08:30:19.486Z,2.40
2023-02-01T08:32:46.306Z,2.70
2023-02-01T08:35:13.511Z,3.00
2023-02-01T08:37:40.609Z,3.20
2023-02-01T08:40:08.233Z,3.30
2023-02-01T08:42:53.583Z,3.60
2023-02-01T08:45:29.940Z,3.80
2023-02-01T08:47:57.478Z,3.80
2023-02-01T08:50:25.188Z,4.00
2023-02-01T08:52:52.624Z,4.20
2023-02-01T08:55:19.546Z,4.40
2023-02-01T08:57:46.564Z,4.60
2023-02-01T09:00:16.512Z,4.80
2023-02-01T09:02:44.393Z,5.00
2023-02-01T09:05:12.037Z,5.10
2023-02-01T09:07:39.421Z,5.30
2023-02-01T09:10:07.100Z,5.40
2023-02-01T09:12:34.628Z,5.30
2023-02-01T09:15:01.876Z,5.40
2023-02-01T09:20:01.288Z,5.70
2023-02-01T09:22:28.248Z,5.90
2023-02-01T09:24:55.464Z,6.00
2023-02-01T09:27:22.977Z,6.10
2023-02-01T09:29:53.336Z,6.20
2023-02-01T09:32:22.433Z,6.20
2023-02-01T09:34:50.646Z,6.30
2023-02-01T09:37:17.699Z,6.30
2023-02-01T09:39:44.843Z,6.40
2023-02-01T09:42:49.109Z,6.50
2023-02-01T09:45:22.955Z,6.50
2023-02-01T09:47:57.211Z,6.80
2023-02-01T09:50:50.823Z,6.90
2023-02-01T09:53:28.587Z,7.20
2023-02-01T09:56:07.763Z,7.30
2023-02-01T09:58:48.683Z,7.40
2023-02-01T10:01:23.394Z,7.50
2023-02-01T10:04:02.717Z,7.70
2023-02-01T10:06:44.672Z,7.80
2023-02-01T10:09:32.313Z,8.00
2023-02-01T10:12:33.410Z,8.10
2023-02-01T10:15:42.537Z,8.20
2023-02-01T10:18:44.650Z,8.40
2023-02-01T10:21:40.592Z,8.70
2023-02-01T10:24:30.338Z,8.80
2023-02-01T10:27:17.401Z,8.90
2023-02-01T10:29:48.191Z,9.00
2023-02-01T10:32:18.596Z,9.00
2023-02-01T10:34:51.400Z,9.10
2023-02-01T10:37:35.194Z,9.30
2023-02-01T10:40:17.802Z,9.30
2023-02-01T10:42:45.676Z,9.40
2023-02-01T10:45:21.029Z,9.50
2023-02-01T10:47:51.104Z,9.60
2023-02-01T10:50:29.849Z,9.80
2023-02-01T10:53:03.865Z,10.10
2023-02-01T10:55:53.139Z,10.20
2023-02-01T10:58:29.463Z,10.40
2023-02-01T11:01:04.493Z,10.60
2023-02-01T11:03:31.245Z,10.80
2023-02-01T11:05:58.269Z,11.00
2023-02-01T11:08:25.305Z,11.10
2023-02-01T11:11:12.240Z,11.20
2023-02-01T11:13:40.670Z,11.40
2023-02-01T11:16:11.974Z,11.50
2023-02-01T11:18:39.613Z,11.60
2023-02-01T11:21:08.889Z,11.80
2023-02-01T11:23:43.303Z,12.00
2023-02-01T11:26:20.837Z,12.00
2023-02-01T11:28:59.395Z,12.10
2023-02-01T11:31:28.438Z,12.20
2023-02-01T11:34:07.643Z,12.20
2023-02-01T11:36:37.068Z,12.30
2023-02-01T11:39:31.288Z,12.40
2023-02-01T11:42:06.656Z,12.30
2023-02-01T11:44:37.503Z,12.60
2023-02-01T11:47:20.959Z,12.60
2023-02-01T11:49:49.201Z,12.80
2023-02-01T11:52:41.782Z,12.80
2023-02-01T11:55:27.345Z,12.90
2023-02-01T11:58:18.875Z,12.70
2023-02-01T12:00:54.262Z,12.80
2023-02-01T12:03:26.894Z,13.00
2023-02-01T12:06:16.807Z,13.30
2023-02-01T12:09:14.033Z,13.40
2023-02-01T12:12:05.081Z,13.20
2023-02-01T12:14:31.894Z,13.30
2023-02-01T12:17:36.071Z,13.40
2023-02-01T12:20:22.585Z,13.00
2023-02-01T12:23:33.559Z,13.10
2023-02-01T12:26:13.793Z,13.20
2023-02-01T12:29:01.848Z,13.20
2023-02-01T12:32:03.932Z,13.30
2023-02-01T12:34:53.211Z,13.60
2023-02-01T12:37:29.056Z,13.50
2023-02-01T12:40:29.812Z,13.80
2023-02-01T12:43:18.281Z,14.00
2023-02-01T12:45:57.754Z,14.20
2023-02-01T12:48:43.108Z,14.50
2023-02-01T12:51:18.438Z,14.40
2023-02-01T12:54:11.992Z,14.10
2023-02-01T12:56:47.073Z,14.30
2023-02-01T12:59:36.826Z,14.60
2023-02-01T13:02:30.701Z,14.70
2023-02-01T13:05:18.148Z,14.70
2023-02-01T13:08:11.146Z,14.70
2023-02-01T13:10:42.911Z,14.80
2023-02-01T13:13:39.904Z,14.90
2023-02-01T13:16:35.462Z,15.00
2023-02-01T13:19:18.436Z,15.00
2023-02-01T13:21:51.045Z,15.10
2023-02-01T13:24:38.056Z,15.00
2023-02-01T13:27:05.099Z,15.00
2023-02-01T13:29:34.297Z,14.90
2023-02-01T13:32:54.798Z,14.80
2023-02-01T13:35:50.587Z,14.80
2023-02-01T13:38:48.028Z,14.30
2023-02-01T13:41:32.076Z,14.40
2023-02-01T13:44:27.347Z,14.50
2023-02-01T13:46:59.435Z,14.40
2023-02-01T13:49:29.775Z,14.60
2023-02-01T13:51:58.368Z,14.70
2023-02-01T13:54:31.672Z,14.60
2023-02-01T13:57:00.706Z,14.30
2023-02-01T13:59:52.115Z,14.60
2023-02-01T14:02:43.589Z,14.70
2023-02-01T14:05:12.579Z,14.80
2023-02-01T14:08:05.296Z,14.60
2023-02-01T14:10:48.889Z,14.60
2023-02-01T14:13:39.506Z,14.60
2023-02-01T14:16:07.326Z,14.50
2023-02-01T14:18:43.021Z,14.60
2023-02-01T14:21:28.393Z,14.30
2023-02-01T14:23:55.240Z,14.20
2023-02-01T14:26:43.842Z,14.10
2023-02-01T14:29:20.949Z,14.10
2023-02-01T14:32:03.367Z,13.90
2023-02-01T14:34:37.069Z,14.10
2023-02-01T14:37:07.771Z,14.00
2023-02-01T14:39:42.792Z,14.10
2023-02-01T14:42:23.312Z,14.30
2023-02-01T14:44:58.242Z,14.30
2023-02-01T14:47:30.024Z,14.00
2023-02-01T14:50:23.919Z,13.80
2023-02-01T14:53:11.880Z,13.80
2023-02-01T14:55:50.655Z,13.80
2023-02-01T14:58:24.889Z,13.80
2023-02-01T15:00:58.405Z,13.80
2023-02-01T15:03:41.646Z,13.70
2023-02-01T15:06:31.392Z,13.70
2023-02-01T15:09:09.448Z,13.60
2023-02-01T15:11:56.009Z,13.60
2023-02-01T15:14:22.929Z,13.60
2023-02-01T15:16:54.707Z,13.60
2023-02-01T15:19:26.668Z,13.70
2023-02-01T15:21:56.462Z,13.70
2023-02-01T15:24:26.148Z,13.90
2023-02-01T15:26:55.056Z,14.00
2023-02-01T15:29:26.543Z,14.00
2023-02-01T15:31:54.000Z,13.80
2023-02-01T15:34:21.659Z,13.80
2023-02-01T15:37:02.031Z,13.80
2023-02-01T15:39:32.464Z,13.90
2023-02-01T15:42:16.368Z,13.90
2023-02-01T15:44:47.141Z,14.00
2023-02-01T15:47:27.416Z,14.10
2023-02-01T15:49:59.712Z,13.90
2023-02-01T15:52:38.744Z,14.00
2023-02-01T15:55:19.750Z,14.00
2023-02-01T15:57:47.156Z,13.90
2023-02-01T16:00:26.278Z,13.60
2023-02-01T16:02:55.909Z,13.60
2023-02-01T16:05:40.951Z,13.60
2023-02-01T16:08:16.738Z,13.40
2023-02-01T16:10:48.536Z,13.30
2023-02-01T16:13:17.455Z,13.20
2023-02-01T16:15:45.134Z,13.10
2023-02-01T16:18:13.369Z,12.90
2023-02-01T16:20:42.064Z,12.80
2023-02-01T16:23:10.601Z,12.50
2023-02-01T16:25:38.713Z,11.80
2023-02-01T16:28:09.301Z,11.30
2023-02-01T16:30:36.958Z,11.20
2023-02-01T16:33:06.188Z,11.10
2023-02-01T16:35:38.443Z,10.70
2023-02-01T16:38:13.748Z,10.20
2023-02-01T16:40:44.715Z,10.20
2023-02-01T16:43:17.626Z,10.10
2023-02-01T16:45:49.438Z,9.90
2023-02-01T16:48:37.177Z,9.80
2023-02-01T16:51:09.573Z,9.70
2023-02-01T16:53:52.102Z,9.20
2023-02-01T16:56:34.695Z,9.10
2023-02-01T16:59:02.060Z,9.00
2023-02-01T17:01:29.607Z,8.90
2023-02-01T17:03:56.994Z,8.30
2023-02-01T17:06:26.317Z,8.10
2023-02-01T17:08:56.101Z,8.00
2023-02-01T17:11:23.122Z,8.00
2023-02-01T17:13:50.042Z,7.80
2023-02-01T17:16:19.798Z,7.70
2023-02-01T17:19:03.430Z,7.40
2023-02-01T17:21:35.977Z,7.20
2023-02-01T17:24:02.791Z,7.20
2023-02-01T17:26:29.738Z,7.20
2023-02-01T17:28:57.843Z,7.10
2023-02-01T17:31:24.743Z,6.90
2023-02-01T17:33:51.653Z,6.70
2023-02-01T17:36:18.880Z,6.60
2023-02-01T17:38:53.582Z,6.40
2023-02-01T17:41:26.858Z,6.40
2023-02-01T17:43:54.307Z,6.20
2023-02-01T17:46:27.033Z,6.00
2023-02-01T17:48:55.021Z,6.10
2023-02-01T17:51:24.971Z,6.10
2023-02-01T17:53:51.818Z,6.10
2023-02-01T17:56:23.932Z,5.70
2023-02-01T17:58:51.178Z,5.60
2023-02-01T18:01:23.982Z,5.70
2023-02-01T18:03:51.729Z,5.60
2023-02-01T18:06:21.667Z,5.20
2023-02-01T18:08:48.669Z,5.20
2023-02-01T18:11:18.275Z,5.30
2023-02-01T18:13:45.437Z,5.30
2023-02-01T18:16:24.053Z,5.40
2023-02-01T18:18:51.810Z,5.40
2023-02-01T18:21:21.472Z,5.10
2023-02-01T18:23:49.650Z,4.80
2023-02-01T18:26:18.548Z,4.60
2023-02-01T18:28:45.645Z,4.60
2023-02-01T18:31:23.928Z,4.40
2023-02-01T18:33:52.275Z,4.30
2023-02-01T18:36:19.433Z,4.40
2023-02-01T18:38:46.873Z,4.40
2023-02-01T18:41:23.432Z,4.50
2023-02-01T18:43:52.176Z,4.50
2023-02-01T18:46:21.620Z,4.50
2023-02-01T18:48:48.998Z,4.50
2023-02-01T18:51:20.349Z,4.10
2023-02-01T18:53:50.697Z,4.00
2023-02-01T18:56:18.552Z,4.00
2023-02-01T18:58:45.984Z,4.00
2023-02-01T19:01:18.646Z,3.80
2023-02-01T19:03:52.644Z,3.80
2023-02-01T19:06:26.306Z,3.80
2023-02-01T19:08:56.133Z,3.50
2023-02-01T19:11:23.149Z,3.20
2023-02-01T19:13:51.504Z,3.20
2023-02-01T19:16:18.446Z,3.30
2023-02-01T19:18:45.308Z,3.30
2023-02-01T19:21:13.676Z,3.30
2023-02-01T19:23:42.290Z,3.30
2023-02-01T19:26:14.037Z,3.40
2023-02-01T19:28:41.233Z,3.40
2023-02-01T19:31:09.054Z,3.40
2023-02-01T19:33:36.478Z,3.40
2023-02-01T19:36:06.139Z,3.30
2023-02-01T19:38:34.027Z,3.00
2023-02-01T19:41:01.398Z,2.90
2023-02-01T19:43:28.328Z,2.90
2023-02-01T19:45:56.004Z,2.80
2023-02-01T19:48:22.923Z,2.60
2023-02-01T19:50:49.973Z,2.50
2023-02-01T19:53:19.190Z,2.40
2023-02-01T19:55:46.946Z,2.40
2023-02-01T19:58:14.568Z,2.40
2023-02-01T20:00:40.898Z,2.30
2023-02-01T20:03:08.166Z,2.40
2023-02-01T20:05:35.107Z,2.50
2023-02-01T20:08:02.197Z,2.50
2023-02-01T20:10:29.070Z,2.30
2023-02-01T20:12:55.894Z,2.30
2023-02-01T20:15:24.789Z,2.20
2023-02-01T20:17:52.068Z,2.30
2023-02-01T20:20:19.138Z,2.40
2023-02-01T20:22:45.979Z,2.50
2023-02-01T20:25:12.932Z,2.60
2023-02-01T20:27:40.632Z,2.90
2023-02-01T20:30:08.322Z,3.10
2023-02-01T20:32:35.180Z,3.00
2023-02-01T20:35:02.028Z,2.70
2023-02-01T20:37:28.968Z,2.60
2023-02-01T20:39:55.772Z,2.60
2023-02-01T20:42:22.667Z,2.30
2023-02-01T20:44:49.596Z,2.20
2023-02-01T20:47:16.456Z,2.20
2023-02-01T20:49:43.340Z,2.20
2023-02-01T20:52:11.251Z,2.20
2023-02-01T20:54:38.578Z,2.00
2023-02-01T20:57:05.727Z,1.90
2023-02-01T20:59:32.569Z,2.00
2023-02-01T21:01:59.756Z,2.00
2023-02-01T21:04:27.647Z,2.10
2023-02-01T21:06:55.686Z,1.90
2023-02-01T21:09:24.719Z,1.90
2023-02-01T21:11:52.406Z,2.00
2023-02-01T21:14:20.343Z,1.90
2023-02-01T21:16:47.797Z,1.70
2023-02-01T21:19:14.825Z,1.70
2023-02-01T21:21:42.336Z,1.80
2023-02-01T21:24:09.865Z,1.80
2023-02-01T21:26:42.857Z,1.90
2023-02-01T21:29:12.204Z,1.80
2023-02-01T21:31:40.957Z,1.30
2023-02-01T21:34:09.123Z,1.40
2023-02-01T21:36:36.093Z,1.50
2023-02-01T21:39:06.290Z,1.60
2023-02-01T21:41:54.591Z,1.60
2023-02-01T21:44:21.860Z,1.60
2023-02-01T21:46:48.913Z,1.60
2023-02-01T21:49:16.133Z,1.40
2023-02-01T21:51:43.171Z,1.50
2023-02-01T21:54:11.784Z,1.50
2023-02-01T21:56:39.923Z,1.50
2023-02-01T21:59:07.814Z,1.40
2023-02-01T22:01:34.776Z,1.30
2023-02-01T22:04:01.650Z,1.10
2023-02-01T22:06:29.592Z,1.10
2023-02-01T22:08:56.755Z,1.20
2023-02-01T22:11:24.103Z,1.30
2023-02-01T22:13:50.951Z,1.40
2023-02-01T22:16:21.253Z,1.30
2023-02-01T22:18:49.787Z,1.10
2023-02-01T22:21:17.091Z,1.00
2023-02-01T22:23:44.117Z,1.10
2023-02-01T22:26:13.188Z,1.10
2023-02-01T22:28:40.632Z,1.10
2023-02-01T22:31:09.479Z,1.10
2023-02-01T22:33:36.872Z,1.00
2023-02-01T22:36:05.392Z,1.00
2023-02-01T22:38:34.024Z,0.80
2023-02-01T22:41:03.605Z,0.70
2023-02-01T22:43:30.991Z,0.70
2023-02-01T22:46:02.526Z,0.70
2023-02-01T22:48:31.150Z,0.70
2023-02-01T22:50:58.944Z,0.50
2023-02-01T22:53:26.508Z,0.40
2023-02-01T22:55:53.645Z,0.20
2023-02-01T22:58:20.447Z,0.30
2023-02-01T23:00:47.308Z,0.30
2023-02-01T23:03:14.587Z,0.40
2023-02-01T23:05:41.442Z,0.50
2023-02-01T23:08:08.296Z,0.60
2023-02-01T23:10:35.179Z,0.60
2023-02-01T23:13:02.120Z,0.30
2023-02-01T23:15:28.943Z,0.30
2023-02-01T23:17:55.824Z,0.30
2023-02-01T23:20:22.972Z,0.40
2023-02-01T23:22:50.133Z,0.40
2023-02-01T23:25:18.293Z,0.40
2023-02-01T23:27:45.779Z,0.20
2023-02-01T23:30:12.994Z,0.20
2023-02-01T23:32:39.842Z,0.20
2023-02-01T23:35:07.348Z,0.10
2023-02-01T23:37:34.279Z,0.20
2023-02-01T23:40:01.111Z,0.30
2023-02-01T23:42:27.953Z,0.30
2023-02-01T23:44:54.790Z,0.20
2023-02-01T23:47:21.730Z,0.20
2023-02-01T23:49:48.542Z,0.10
2023-02-01T23:52:15.395Z,0.20
2023-02-01T23:54:42.295Z,0.10
2023-02-01T23:57:09.266Z,0.20
2023-02-01T23:59:36.226Z,0.30
